createdAt,value
2019-04-01T00:00:15.337Z,6.70
2019-04-01T00:02:44.110Z,6.80
2019-04-01T00:05:13.153Z,6.70
2019-04-01T00:07:41.959Z,6.80
2019-04-01T00:10:10.876Z,6.70
2019-04-01T00:12:39.827Z,6.70
2019-04-01T00:15:09.139Z,6.50
2019-04-01T00:20:06.731Z,6.50
2019-04-01T00:22:35.993Z,6.50
2019-04-01T00:25:05.348Z,6.60
2019-04-01T00:27:34.611Z,6.60
2019-04-01T00:30:03.689Z,6.60
2019-04-01T00:32:32.433Z,6.50
2019-04-01T00:35:01.107Z,6.40
2019-04-01T00:37:30.024Z,6.20
2019-04-01T00:42:32.582Z,6.20
2019-04-01T00:45:01.447Z,6.30
2019-04-01T00:47:30.295Z,6.40
2019-04-01T00:49:59.085Z,6.40
2019-04-01T00:52:27.970Z,6.20
2019-04-01T00:54:56.807Z,6.10
2019-04-01T00:57:25.751Z,6.10
2019-04-01T01:02:23.409Z,6.10
2019-04-01T01:04:52.294Z,6.10
2019-04-01T01:07:21.181Z,6.10
2019-04-01T01:09:50.211Z,5.90
2019-04-01T01:12:19.209Z,6.00
2019-04-01T01:14:48.534Z,5.90
2019-04-01T01:17:17.417Z,5.90
2019-04-01T01:19:46.325Z,5.70
2019-04-01T01:24:43.941Z,5.80
2019-04-01T01:27:12.800Z,5.80
2019-04-01T01:29:41.869Z,5.70
2019-04-01T01:32:10.721Z,5.60
2019-04-01T01:34:39.617Z,5.70
2019-04-01T01:37:08.413Z,5.80
2019-04-01T01:39:37.298Z,5.80
2019-04-01T01:42:06.290Z,5.70
2019-04-01T01:44:35.217Z,6.00
2019-04-01T01:47:04.153Z,5.60
2019-04-01T01:49:33.119Z,5.50
2019-04-01T01:52:02.191Z,5.50
2019-04-01T01:54:31.028Z,5.50
2019-04-01T01:56:59.934Z,5.50
2019-04-01T01:59:28.925Z,5.50
2019-04-01T02:01:57.899Z,5.30
2019-04-01T02:06:55.481Z,5.20
2019-04-01T02:09:24.513Z,5.20
2019-04-01T02:11:53.419Z,5.20
2019-04-01T02:14:22.773Z,5.30
2019-04-01T02:16:51.737Z,5.30
2019-04-01T02:19:20.596Z,5.00
2019-04-01T02:21:49.349Z,4.90
2019-04-01T02:24:18.435Z,4.80
2019-04-01T02:29:16.049Z,4.70
2019-04-01T02:31:44.939Z,4.80
2019-04-01T02:34:13.774Z,4.80
2019-04-01T02:36:42.601Z,4.70
2019-04-01T02:39:11.474Z,4.70
2019-04-01T02:41:40.537Z,4.70
2019-04-01T02:44:09.361Z,4.70
2019-04-01T02:46:38.283Z,4.90
2019-04-01T02:49:07.200Z,5.00
2019-04-01T02:51:36.252Z,4.90
2019-04-01T02:54:05.117Z,5.30
2019-04-01T02:56:34.106Z,5.00
2019-04-01T02:59:03.072Z,4.90
2019-04-01T03:01:32.018Z,5.00
2019-04-01T03:04:01.263Z,4.80
2019-04-01T03:06:30.333Z,4.80
2019-04-01T03:08:59.129Z,4.60
2019-04-01T03:13:56.421Z,4.60
2019-04-01T03:16:25.342Z,4.50
2019-04-01T03:18:54.238Z,4.50
2019-04-01T03:21:23.142Z,4.50
2019-04-01T03:23:51.899Z,4.50
2019-04-01T03:26:20.841Z,4.40
2019-04-01T03:28:49.936Z,4.30
2019-04-01T03:33:47.161Z,4.20
2019-04-01T03:36:16.102Z,4.10
2019-04-01T03:38:44.970Z,4.10
2019-04-01T03:41:13.733Z,4.10
2019-04-01T03:43:42.572Z,4.10
2019-04-01T03:46:11.424Z,4.10
2019-04-01T03:48:40.298Z,4.10
2019-04-01T03:51:09.091Z,4.10
2019-04-01T03:56:06.867Z,3.90
2019-04-01T03:58:35.893Z,3.90
2019-04-01T04:01:04.672Z,3.90
2019-04-01T04:03:33.483Z,4.00
2019-04-01T04:06:02.410Z,4.00
2019-04-01T04:08:31.716Z,4.00
2019-04-01T04:11:00.518Z,3.90
2019-04-01T04:13:29.389Z,4.00
2019-04-01T04:18:27.651Z,4.00
2019-04-01T04:20:56.476Z,4.10
2019-04-01T04:23:25.229Z,4.00
2019-04-01T04:25:54.107Z,4.00
2019-04-01T04:28:23.049Z,4.00
2019-04-01T04:30:52.149Z,3.90
2019-04-01T04:33:21.199Z,4.00
2019-04-01T04:35:50.280Z,3.80
2019-04-01T04:40:47.818Z,3.80
2019-04-01T04:43:16.902Z,3.70
2019-04-01T04:45:45.702Z,3.80
2019-04-01T04:48:14.471Z,3.80
2019-04-01T04:50:43.304Z,3.80
2019-04-01T04:53:12.228Z,3.80
2019-04-01T04:55:41.039Z,3.80
2019-04-01T05:00:38.604Z,3.70
2019-04-01T05:03:07.537Z,3.80
2019-04-01T05:05:36.354Z,3.70
2019-04-01T05:08:05.237Z,3.60
2019-04-01T05:10:34.290Z,3.60
2019-04-01T05:13:03.161Z,3.60
2019-04-01T05:15:32.008Z,3.60
2019-04-01T05:18:00.888Z,3.40
2019-04-01T05:22:58.373Z,3.50
2019-04-01T05:25:27.314Z,3.50
2019-04-01T05:27:56.198Z,3.60
2019-04-01T05:30:24.983Z,3.60
2019-04-01T05:32:53.905Z,3.70
2019-04-01T05:35:22.920Z,3.70
2019-04-01T05:37:51.888Z,3.80
2019-04-01T05:42:49.070Z,3.80
2019-04-01T05:45:17.845Z,3.90
2019-04-01T05:47:49.433Z,4.10
2019-04-01T05:50:18.383Z,4.00
2019-04-01T05:52:47.400Z,4.00
2019-04-01T05:55:16.205Z,4.00
2019-04-01T05:57:45.171Z,4.00
2019-04-01T06:00:20.814Z,3.90
2019-04-01T06:02:49.642Z,4.10
2019-04-01T06:07:47.175Z,4.30
2019-04-01T06:10:16.076Z,4.30
2019-04-01T06:12:44.844Z,4.30
2019-04-01T06:15:13.623Z,4.40
2019-04-01T06:17:42.410Z,4.70
2019-04-01T06:20:11.477Z,4.80
2019-04-01T06:22:40.332Z,5.10
2019-04-01T06:27:37.637Z,5.30
2019-04-01T06:30:06.757Z,5.50
2019-04-01T06:32:35.756Z,5.70
2019-04-01T06:35:04.838Z,5.90
2019-04-01T06:37:33.878Z,6.00
2019-04-01T06:40:06.300Z,6.50
2019-04-01T06:42:39.714Z,6.70
2019-04-01T06:45:08.787Z,7.30
2019-04-01T06:47:37.671Z,7.60
2019-04-01T06:52:35.938Z,7.90
2019-04-01T06:55:04.858Z,8.20
2019-04-01T06:57:33.520Z,8.20
2019-04-01T07:00:02.317Z,8.50
2019-04-01T07:02:31.533Z,8.80
2019-04-01T07:05:00.490Z,9.00
2019-04-01T07:07:29.244Z,9.60
2019-04-01T07:12:26.490Z,9.60
2019-04-01T07:14:55.271Z,9.80
2019-04-01T07:17:23.962Z,10.10
2019-04-01T07:19:52.646Z,10.30
2019-04-01T07:22:21.503Z,10.70
2019-04-01T07:24:50.767Z,11.20
2019-04-01T07:27:19.664Z,11.30
2019-04-01T07:29:48.591Z,11.80
2019-04-01T07:34:45.950Z,11.90
2019-04-01T07:37:14.661Z,12.40
2019-04-01T07:39:43.415Z,12.40
2019-04-01T07:42:12.236Z,12.60
2019-04-01T07:44:41.088Z,12.70
2019-04-01T07:47:09.807Z,13.20
2019-04-01T07:49:38.991Z,13.10
2019-04-01T07:52:07.957Z,13.40
2019-04-01T07:57:05.244Z,13.40
2019-04-01T07:59:37.252Z,13.50
2019-04-01T08:02:06.129Z,13.50
2019-04-01T08:04:34.932Z,14.20
2019-04-01T08:07:03.793Z,14.50
2019-04-01T08:09:33.943Z,14.60
2019-04-01T08:14:31.461Z,15.00
2019-04-01T08:17:00.325Z,14.90
2019-04-01T08:19:29.498Z,15.20
2019-04-01T08:21:58.602Z,15.10
2019-04-01T08:24:27.429Z,15.40
2019-04-01T08:26:56.208Z,15.70
2019-04-01T08:29:30.499Z,16.00
2019-04-01T08:31:55.466Z,16.10
2019-04-01T08:34:24.424Z,15.90
2019-04-01T08:41:50.189Z,16.50
2019-04-01T08:44:19.060Z,16.30
2019-04-01T08:46:47.882Z,16.50
2019-04-01T08:49:16.668Z,16.80
2019-04-01T08:51:45.725Z,16.80
2019-04-01T08:54:14.600Z,17.00
2019-04-01T08:59:11.749Z,17.20
2019-04-01T09:01:40.453Z,17.40
2019-04-01T09:04:09.271Z,17.50
2019-04-01T09:09:07.583Z,17.70
2019-04-01T09:11:38.630Z,17.70
2019-04-01T09:14:07.349Z,17.80
2019-04-01T09:16:36.350Z,17.90
2019-04-01T09:21:33.581Z,17.90
2019-04-01T09:24:02.527Z,18.20
2019-04-01T09:26:31.534Z,18.30
2019-04-01T09:29:00.312Z,18.50
2019-04-01T09:31:29.351Z,18.50
2019-04-01T09:33:58.572Z,18.50
2019-04-01T09:36:27.532Z,18.50
2019-04-01T09:38:56.449Z,18.50
2019-04-01T09:41:25.314Z,18.60
2019-04-01T09:43:54.032Z,18.70
2019-04-01T09:46:22.909Z,18.90
2019-04-01T09:48:51.868Z,19.00
2019-04-01T09:51:20.717Z,19.10
2019-04-01T09:53:49.502Z,19.10
2019-04-01T09:56:18.586Z,18.90
2019-04-01T09:58:47.499Z,18.50
2019-04-01T10:03:44.905Z,19.00
2019-04-01T10:06:13.684Z,19.10
2019-04-01T10:08:42.981Z,19.10
2019-04-01T10:11:12.867Z,19.30
2019-04-01T10:13:41.936Z,19.20
2019-04-01T10:16:10.940Z,19.30
2019-04-01T10:18:40.484Z,19.30
2019-04-01T10:23:37.874Z,19.50
2019-04-01T10:28:35.003Z,19.30
2019-04-01T10:31:03.866Z,19.00
2019-04-01T10:33:32.659Z,19.10
2019-04-01T10:36:01.417Z,19.10
2019-04-01T10:38:30.242Z,18.90
2019-04-01T10:40:59.124Z,18.80
2019-04-01T10:45:56.413Z,18.90
2019-04-01T10:48:25.272Z,18.90
2019-04-01T10:50:54.343Z,19.10
2019-04-01T10:53:23.252Z,19.10
2019-04-01T10:55:52.571Z,19.00
2019-04-01T11:00:50.316Z,18.40
2019-04-01T11:03:19.592Z,18.40
2019-04-01T11:05:48.433Z,18.40
2019-04-01T11:08:17.395Z,18.40
2019-04-01T11:10:46.296Z,18.60
2019-04-01T11:13:15.244Z,18.60
2019-04-01T11:15:44.103Z,18.60
2019-04-01T11:18:12.976Z,18.70
2019-04-01T11:20:41.775Z,18.70
2019-04-01T11:23:10.812Z,18.80
2019-04-01T11:28:08.947Z,18.90
2019-04-01T11:30:38.063Z,18.70
2019-04-01T11:33:07.888Z,18.70
2019-04-01T11:35:37.298Z,18.70
2019-04-01T11:38:06.297Z,18.60
2019-04-01T11:40:38.689Z,18.60
2019-04-01T11:45:35.076Z,18.40
2019-04-01T11:50:32.873Z,18.80
2019-04-01T11:53:03.047Z,18.90
2019-04-01T11:55:32.421Z,18.90
2019-04-01T11:58:01.315Z,19.10
2019-04-01T12:00:30.375Z,19.10
2019-04-01T12:02:59.317Z,19.30
2019-04-01T12:05:28.141Z,19.30
2019-04-01T12:07:56.991Z,19.40
2019-04-01T12:12:54.438Z,19.30
2019-04-01T12:15:23.286Z,19.00
2019-04-01T12:17:52.098Z,19.00
2019-04-01T12:20:20.946Z,18.90
2019-04-01T12:22:49.745Z,18.60
2019-04-01T12:25:18.637Z,18.60
2019-04-01T12:27:47.598Z,18.70
2019-04-01T12:30:16.877Z,18.60
2019-04-01T12:32:45.716Z,18.70
2019-04-01T12:37:42.876Z,18.60
2019-04-01T12:40:11.887Z,18.70
2019-04-01T12:42:40.529Z,18.80
2019-04-01T12:45:10.484Z,18.80
2019-04-01T12:47:42.958Z,18.80
2019-04-01T12:50:10.916Z,18.40
2019-04-01T12:55:08.322Z,18.40
2019-04-01T12:57:37.102Z,18.70
2019-04-01T13:00:06.709Z,18.60
2019-04-01T13:02:35.738Z,18.50
2019-04-01T13:05:04.878Z,18.50
2019-04-01T13:07:33.752Z,18.60
2019-04-01T13:10:02.741Z,18.60
2019-04-01T13:12:31.830Z,18.50
2019-04-01T13:17:29.022Z,18.60
2019-04-01T13:19:57.913Z,18.70
2019-04-01T13:22:26.837Z,18.70
2019-04-01T13:24:55.694Z,18.60
2019-04-01T13:27:24.442Z,18.50
2019-04-01T13:29:53.464Z,18.60
2019-04-01T13:32:22.207Z,19.20
2019-04-01T13:34:50.999Z,18.70
2019-04-01T13:37:20.030Z,18.70
2019-04-01T13:39:49.092Z,18.90
2019-04-01T13:42:17.942Z,18.90
2019-04-01T13:44:46.809Z,18.60
2019-04-01T13:47:15.625Z,18.70
2019-04-01T13:49:44.441Z,18.70
2019-04-01T13:52:13.317Z,18.70
2019-04-01T13:54:42.080Z,18.60
2019-04-01T13:59:49.124Z,18.80
2019-04-01T14:02:10.060Z,18.70
2019-04-01T14:04:38.877Z,18.90
2019-04-01T14:07:07.863Z,18.70
2019-04-01T14:09:36.838Z,18.50
2019-04-01T14:12:05.759Z,18.70
2019-04-01T14:14:34.752Z,18.60
2019-04-01T14:17:03.652Z,18.50
2019-04-01T14:22:01.053Z,18.60
2019-04-01T14:24:30.381Z,18.80
2019-04-01T14:26:59.120Z,18.80
2019-04-01T14:29:27.899Z,18.80
2019-04-01T14:31:56.831Z,18.90
2019-04-01T14:34:25.627Z,18.50
2019-04-01T14:36:54.492Z,18.60
2019-04-01T14:39:23.432Z,18.40
2019-04-01T14:44:20.620Z,18.40
2019-04-01T14:46:49.509Z,18.40
2019-04-01T14:49:18.350Z,18.40
2019-04-01T14:51:47.440Z,18.40
2019-04-01T14:54:16.504Z,18.30
2019-04-01T14:56:45.423Z,18.40
2019-04-01T14:59:14.206Z,18.40
2019-04-01T15:04:11.552Z,18.50
2019-04-01T15:09:09.018Z,18.60
2019-04-01T15:11:37.876Z,18.60
2019-04-01T15:14:08.525Z,18.60
2019-04-01T15:16:37.665Z,18.40
2019-04-01T15:19:06.536Z,18.40
2019-04-01T15:21:35.524Z,18.90
2019-04-01T15:26:33.845Z,18.50
2019-04-01T15:29:02.965Z,18.20
2019-04-01T15:31:31.678Z,18.00
2019-04-01T15:34:00.586Z,18.20
2019-04-01T15:36:29.429Z,18.30
2019-04-01T15:38:58.663Z,18.30
2019-04-01T15:41:27.790Z,18.20
2019-04-01T15:43:56.867Z,18.00
2019-04-01T15:46:25.913Z,18.50
2019-04-01T15:48:55.098Z,18.00
2019-04-01T15:51:24.240Z,18.00
2019-04-01T15:53:53.367Z,17.90
2019-04-01T15:56:22.323Z,17.90
2019-04-01T15:58:52.584Z,18.00
2019-04-01T16:01:21.866Z,18.00
2019-04-01T16:03:50.980Z,17.90
2019-04-01T16:08:48.670Z,17.90
2019-04-01T16:11:18.946Z,17.90
2019-04-01T16:13:48.255Z,17.90
2019-04-01T16:16:17.700Z,17.80
2019-04-01T16:18:47.107Z,17.80
2019-04-01T16:23:44.727Z,17.60
2019-04-01T16:26:13.926Z,17.60
2019-04-01T16:31:11.698Z,17.70
2019-04-01T16:33:40.358Z,17.60
2019-04-01T16:36:09.337Z,17.60
2019-04-01T16:38:38.143Z,17.50
2019-04-01T16:41:06.856Z,17.40
2019-04-01T16:43:38.081Z,17.30
2019-04-01T16:46:05.978Z,17.30
2019-04-01T16:48:34.673Z,17.00
2019-04-01T16:53:32.010Z,17.00
2019-04-01T16:56:01.094Z,17.00
2019-04-01T16:58:29.809Z,16.90
2019-04-01T17:00:58.585Z,16.90
2019-04-01T17:03:27.305Z,16.90
2019-04-01T17:05:56.957Z,16.70
2019-04-01T17:08:29.688Z,16.70
2019-04-01T17:15:56.985Z,16.70
2019-04-01T17:18:25.674Z,16.70
2019-04-01T17:20:54.316Z,16.70
2019-04-01T17:23:23.031Z,16.60
2019-04-01T17:25:51.687Z,16.50
2019-04-01T17:28:20.362Z,16.40
2019-04-01T17:30:49.010Z,16.40
2019-04-01T17:35:46.049Z,16.40
2019-04-01T17:38:14.728Z,16.40
2019-04-01T17:40:43.429Z,16.40
2019-04-01T17:43:13.661Z,16.30
2019-04-01T17:45:42.513Z,16.20
2019-04-01T17:50:39.461Z,16.10
2019-04-01T17:53:08.547Z,16.00
2019-04-01T17:58:06.148Z,15.90
2019-04-01T18:00:36.549Z,15.90
2019-04-01T18:03:05.920Z,15.80
2019-04-01T18:05:35.694Z,15.70
2019-04-01T18:08:05.199Z,15.60
2019-04-01T18:10:34.425Z,15.60
2019-04-01T18:13:03.080Z,15.40
2019-04-01T18:15:31.734Z,15.30
2019-04-01T18:20:28.833Z,15.30
2019-04-01T18:22:57.528Z,15.20
2019-04-01T18:25:26.304Z,15.20
2019-04-01T18:27:54.980Z,15.10
2019-04-01T18:30:23.960Z,15.00
2019-04-01T18:32:55.272Z,15.00
2019-04-01T18:35:23.102Z,14.90
2019-04-01T18:37:51.785Z,14.90
2019-04-01T18:40:31.953Z,14.90
2019-04-01T18:42:51.190Z,14.70
2019-04-01T18:45:19.979Z,14.50
2019-04-01T18:47:50.210Z,14.50
2019-04-01T18:50:19.026Z,14.50
2019-04-01T18:52:48.752Z,14.50
2019-04-01T18:55:17.887Z,14.40
2019-04-01T18:57:46.662Z,14.30
2019-04-01T19:02:43.781Z,14.20
2019-04-01T19:05:12.546Z,14.20
2019-04-01T19:07:41.492Z,14.00
2019-04-01T19:10:11.261Z,13.60
2019-04-01T19:12:40.574Z,13.60
2019-04-01T19:15:10.190Z,13.40
2019-04-01T19:17:39.344Z,13.10
2019-04-01T19:20:08.015Z,12.70
2019-04-01T19:25:05.869Z,13.00
2019-04-01T19:27:34.528Z,12.50
2019-04-01T19:30:03.276Z,12.30
2019-04-01T19:32:31.995Z,12.30
2019-04-01T19:35:00.687Z,12.20
2019-04-01T19:37:29.370Z,12.10
2019-04-01T19:39:58.038Z,11.80
2019-04-01T19:44:55.347Z,11.60
2019-04-01T19:47:24.002Z,11.50
2019-04-01T19:49:52.687Z,11.60
2019-04-01T19:52:21.366Z,11.60
2019-04-01T19:54:50.174Z,11.50
2019-04-01T19:57:18.848Z,11.40
2019-04-01T19:59:47.527Z,11.20
2019-04-01T20:02:16.411Z,10.80
2019-04-01T20:04:45.110Z,11.00
2019-04-01T20:07:13.765Z,11.00
2019-04-01T20:09:42.485Z,11.20
2019-04-01T20:12:12.019Z,11.20
2019-04-01T20:14:40.793Z,11.20
2019-04-01T20:17:10.219Z,11.20
2019-04-01T20:19:39.309Z,11.20
2019-04-01T20:22:08.456Z,11.10
2019-04-01T20:24:37.158Z,11.00
2019-04-01T20:29:34.527Z,10.90
2019-04-01T20:32:16.265Z,10.70
2019-04-01T20:34:33.986Z,10.50
2019-04-01T20:37:02.760Z,10.40
2019-04-01T20:39:31.530Z,10.30
2019-04-01T20:42:00.213Z,10.20
2019-04-01T20:44:28.881Z,10.20
2019-04-01T20:46:57.641Z,10.00
2019-04-01T20:51:54.742Z,10.10
2019-04-01T20:54:23.722Z,10.10
2019-04-01T20:56:52.697Z,10.00
2019-04-01T20:59:21.411Z,10.00
2019-04-01T21:01:50.059Z,9.90
2019-04-01T21:04:18.718Z,9.90
2019-04-01T21:06:47.366Z,9.80
2019-04-01T21:09:16.310Z,9.40
2019-04-01T21:14:14.513Z,9.40
2019-04-01T21:16:43.195Z,9.40
2019-04-01T21:19:11.921Z,9.40
2019-04-01T21:21:40.619Z,9.40
2019-04-01T21:24:09.293Z,9.30
2019-04-01T21:26:37.986Z,9.30
2019-04-01T21:29:06.643Z,9.00
2019-04-01T21:34:03.692Z,9.00
2019-04-01T21:36:32.716Z,8.90
2019-04-01T21:39:01.673Z,9.00
2019-04-01T21:41:30.413Z,9.00
2019-04-01T21:43:59.091Z,9.00
2019-04-01T21:46:27.776Z,8.90
2019-04-01T21:48:57.122Z,8.80
2019-04-01T21:51:25.787Z,8.80
2019-04-01T21:56:23.114Z,8.60
2019-04-01T21:58:52.628Z,8.60
2019-04-01T22:01:21.634Z,8.60
2019-04-01T22:03:50.454Z,8.60
2019-04-01T22:06:19.220Z,8.70
2019-04-01T22:08:47.980Z,8.80
2019-04-01T22:11:16.696Z,8.70
2019-04-01T22:16:13.763Z,8.70
2019-04-01T22:18:43.277Z,8.60
2019-04-01T22:21:12.274Z,8.60
2019-04-01T22:23:41.042Z,8.60
2019-04-01T22:26:09.723Z,8.60
2019-04-01T22:28:38.385Z,8.50
2019-04-01T22:31:07.073Z,8.30
2019-04-01T22:33:36.012Z,8.10
2019-04-01T22:38:34.100Z,8.10
2019-04-01T22:41:03.526Z,8.00
2019-04-01T22:43:32.195Z,8.00
2019-04-01T22:46:00.846Z,8.00
2019-04-01T22:48:29.506Z,7.90
2019-04-01T22:50:58.210Z,7.90
2019-04-01T22:53:26.852Z,7.90
2019-04-01T22:55:56.366Z,8.00
2019-04-01T23:00:54.381Z,8.00
2019-04-01T23:03:23.045Z,8.00
2019-04-01T23:05:51.755Z,8.00
2019-04-01T23:08:20.447Z,7.90
2019-04-01T23:10:49.112Z,7.80
2019-04-01T23:13:17.781Z,7.70
2019-04-01T23:15:46.477Z,7.40
2019-04-01T23:23:12.515Z,7.40
2019-04-01T23:25:41.238Z,7.20
2019-04-01T23:28:10.304Z,7.10
2019-04-01T23:30:39.108Z,7.10
2019-04-01T23:33:07.827Z,7.10
2019-04-01T23:35:36.582Z,6.90
2019-04-01T23:38:05.250Z,6.80
2019-04-01T23:43:02.254Z,6.70
2019-04-01T23:45:30.909Z,6.70
2019-04-01T23:47:59.990Z,6.80
2019-04-01T23:50:28.709Z,6.70
2019-04-01T23:52:58.784Z,6.70
2019-04-01T23:55:29.012Z,6.60
2019-04-01T23:57:58.070Z,6.70
